createdAt,value
2023-06-29T00:00:25.352Z,8.77
2023-06-29T00:02:54.225Z,8.75
2023-06-29T00:05:22.692Z,12.90
2023-06-29T00:07:50.385Z,6.53
2023-06-29T00:10:17.853Z,9.65
2023-06-29T00:12:45.048Z,9.88
2023-06-29T00:15:12.174Z,7.90
2023-06-29T00:17:39.236Z,9.98
2023-06-29T00:20:11.692Z,7.68
2023-06-29T00:22:41.795Z,8.75
2023-06-29T00:25:10.215Z,10.60
2023-06-29T00:27:37.199Z,9.43
2023-06-29T00:30:04.473Z,9.45
2023-06-29T00:32:31.524Z,7.47
2023-06-29T00:34:58.481Z,8.52
2023-06-29T00:37:25.789Z,8.70
2023-06-29T00:39:52.803Z,7.22
2023-06-29T00:42:19.752Z,10.65
2023-06-29T00:44:48.069Z,7.63
2023-06-29T00:47:15.177Z,8.27
2023-06-29T00:49:42.748Z,8.43
2023-06-29T00:52:10.435Z,8.35
2023-06-29T00:54:37.718Z,8.00
2023-06-29T00:57:05.036Z,9.10
2023-06-29T00:59:31.955Z,7.43
2023-06-29T01:01:58.945Z,13.18
2023-06-29T01:04:28.856Z,8.02
2023-06-29T01:07:19.164Z,8.77
2023-06-29T01:09:47.813Z,8.52
2023-06-29T01:12:16.548Z,6.95
2023-06-29T01:14:45.450Z,8.55
2023-06-29T01:17:16.369Z,8.57
2023-06-29T01:19:46.355Z,8.48
2023-06-29T01:22:26.405Z,7.68
2023-06-29T01:24:53.960Z,8.20
2023-06-29T01:27:22.607Z,7.43
2023-06-29T01:29:54.654Z,10.02
2023-06-29T01:32:21.828Z,8.80
2023-06-29T01:34:49.072Z,9.85
2023-06-29T01:37:22.836Z,10.50
2023-06-29T01:40:02.139Z,8.82
2023-06-29T01:42:32.047Z,8.88
2023-06-29T01:45:01.449Z,7.95
2023-06-29T01:47:29.029Z,8.82
2023-06-29T01:49:56.908Z,9.68
2023-06-29T01:52:24.039Z,8.32
2023-06-29T01:54:52.014Z,10.20
2023-06-29T01:57:19.308Z,9.63
2023-06-29T01:59:46.997Z,8.48
2023-06-29T02:02:14.396Z,6.93
2023-06-29T02:04:41.420Z,11.73
2023-06-29T02:07:08.374Z,6.45
2023-06-29T02:09:35.307Z,7.55
2023-06-29T02:12:03.345Z,6.03
2023-06-29T02:14:30.405Z,11.65
2023-06-29T02:16:57.384Z,8.60
2023-06-29T02:19:24.313Z,6.90
2023-06-29T02:21:51.233Z,7.22
2023-06-29T02:24:18.578Z,11.32
2023-06-29T02:26:45.625Z,7.70
2023-06-29T02:29:12.605Z,10.45
2023-06-29T02:31:39.549Z,6.15
2023-06-29T02:34:11.042Z,11.82
2023-06-29T02:44:13.678Z,12.68
2023-06-29T02:46:41.809Z,7.85
2023-06-29T02:49:09.029Z,8.30
2023-06-29T02:51:36.047Z,8.75
2023-06-29T02:54:02.988Z,7.68
2023-06-29T02:56:29.815Z,6.93
2023-06-29T02:58:56.745Z,5.85
2023-06-29T03:01:24.133Z,7.40
2023-06-29T03:03:51.047Z,9.73
2023-06-29T03:06:17.959Z,8.10
2023-06-29T03:08:44.776Z,6.38
2023-06-29T03:11:11.683Z,7.75
2023-06-29T03:13:38.689Z,6.93
2023-06-29T03:16:05.947Z,6.95
2023-06-29T03:18:32.903Z,6.60
2023-06-29T03:20:59.977Z,5.60
2023-06-29T03:23:26.853Z,9.80
2023-06-29T03:25:53.774Z,7.38
2023-06-29T03:28:20.943Z,7.72
2023-06-29T03:30:47.844Z,8.38
2023-06-29T03:33:14.839Z,8.85
2023-06-29T03:35:42.266Z,6.70
2023-06-29T03:38:10.565Z,10.15
2023-06-29T03:40:37.854Z,8.68
2023-06-29T03:43:04.778Z,6.13
2023-06-29T03:45:32.816Z,9.25
2023-06-29T03:48:00.027Z,8.13
2023-06-29T03:50:27.001Z,6.43
2023-06-29T03:52:53.964Z,7.07
2023-06-29T03:55:20.921Z,5.70
2023-06-29T03:57:47.939Z,7.53
2023-06-29T04:00:15.131Z,7.85
2023-06-29T04:02:42.784Z,6.28
2023-06-29T04:05:10.354Z,5.78
2023-06-29T04:07:37.533Z,8.70
2023-06-29T04:10:04.749Z,7.88
2023-06-29T04:12:31.589Z,8.35
2023-06-29T04:14:58.552Z,9.02
2023-06-29T04:17:25.511Z,6.15
2023-06-29T04:19:52.490Z,6.30
2023-06-29T04:22:19.474Z,9.35
2023-06-29T04:24:46.759Z,8.77
2023-06-29T04:27:13.847Z,7.55
2023-06-29T04:29:42.261Z,7.45
2023-06-29T04:32:09.385Z,7.57
2023-06-29T04:34:36.274Z,6.68
2023-06-29T04:37:03.578Z,6.80
2023-06-29T04:39:30.554Z,7.13
2023-06-29T04:42:02.676Z,6.93
2023-06-29T04:44:33.464Z,6.28
2023-06-29T04:47:01.570Z,8.05
2023-06-29T04:49:38.698Z,6.50
2023-06-29T04:52:06.841Z,7.43
2023-06-29T04:54:33.981Z,7.50
2023-06-29T04:57:00.945Z,6.50
2023-06-29T04:59:29.821Z,6.13
2023-06-29T05:01:56.999Z,6.22
2023-06-29T05:04:24.039Z,7.22
2023-06-29T05:06:50.961Z,7.57
2023-06-29T05:09:17.952Z,6.78
2023-06-29T05:11:45.062Z,6.88
2023-06-29T05:14:12.038Z,7.40
2023-06-29T05:16:39.157Z,6.55
2023-06-29T05:19:06.111Z,8.00
2023-06-29T05:21:33.044Z,10.20
2023-06-29T05:23:59.981Z,11.55
2023-06-29T05:26:26.783Z,8.82
2023-06-29T05:31:23.569Z,7.78
2023-06-29T05:33:50.468Z,6.40
2023-06-29T05:36:17.472Z,8.63
2023-06-29T05:38:44.438Z,8.57
2023-06-29T05:41:11.367Z,7.35
2023-06-29T05:43:38.532Z,7.35
2023-06-29T05:46:05.640Z,7.53
2023-06-29T05:48:32.513Z,7.70
2023-06-29T05:50:59.553Z,5.55
2023-06-29T05:53:26.621Z,7.20
2023-06-29T05:55:53.495Z,7.20
2023-06-29T05:58:20.384Z,6.43
2023-06-29T06:00:47.289Z,9.05
2023-06-29T06:03:14.497Z,10.15
2023-06-29T06:05:41.532Z,10.65
2023-06-29T06:08:08.460Z,8.65
2023-06-29T06:10:35.712Z,7.20
2023-06-29T06:13:04.270Z,5.32
2023-06-29T06:15:31.194Z,6.90
2023-06-29T06:17:58.176Z,6.32
2023-06-29T06:20:25.271Z,10.10
2023-06-29T06:22:52.147Z,14.68
2023-06-29T06:25:19.203Z,8.40
2023-06-29T06:27:46.234Z,7.13
2023-06-29T06:30:13.206Z,6.28
2023-06-29T06:32:40.471Z,7.43
2023-06-29T06:35:09.182Z,13.23
2023-06-29T06:37:39.840Z,10.50
2023-06-29T06:40:08.997Z,12.65
2023-06-29T06:42:36.885Z,5.07
2023-06-29T06:45:07.658Z,10.23
2023-06-29T06:47:35.781Z,10.02
2023-06-29T06:50:03.805Z,6.57
2023-06-29T06:52:30.697Z,22.92
2023-06-29T06:54:57.772Z,6.18
2023-06-29T06:57:25.139Z,8.95
2023-06-29T06:59:52.130Z,9.82
2023-06-29T07:02:19.359Z,10.85
2023-06-29T07:04:46.616Z,9.23
2023-06-29T07:07:13.660Z,5.97
2023-06-29T07:09:40.610Z,5.88
2023-06-29T07:12:08.257Z,8.88
2023-06-29T07:14:35.188Z,4.03
2023-06-29T07:17:02.198Z,4.93
2023-06-29T07:24:29.478Z,10.85
2023-06-29T07:26:56.397Z,10.27
2023-06-29T07:29:23.338Z,7.18
2023-06-29T07:31:50.325Z,8.00
2023-06-29T07:34:17.363Z,9.15
2023-06-29T07:36:44.336Z,31.38
2023-06-29T07:39:11.292Z,25.45
2023-06-29T07:41:38.287Z,28.95
2023-06-29T07:44:05.467Z,21.00
2023-06-29T07:46:35.090Z,14.63
2023-06-29T07:49:02.320Z,15.75
2023-06-29T07:51:34.530Z,15.77
2023-06-29T07:54:05.463Z,11.75
2023-06-29T07:59:03.576Z,12.77
2023-06-29T08:01:30.756Z,46.58
2023-06-29T08:04:02.812Z,6.93
2023-06-29T08:09:03.227Z,9.07
2023-06-29T08:11:30.787Z,7.78
2023-06-29T08:13:57.793Z,6.07
2023-06-29T08:16:24.890Z,6.90
2023-06-29T08:18:52.078Z,7.68
2023-06-29T08:21:19.061Z,6.57
2023-06-29T08:23:48.017Z,5.90
2023-06-29T08:26:15.041Z,6.82
2023-06-29T08:28:42.030Z,10.55
2023-06-29T08:31:09.071Z,12.32
2023-06-29T08:33:36.192Z,5.75
2023-06-29T08:36:03.509Z,7.53
2023-06-29T08:38:30.513Z,7.07
2023-06-29T08:40:59.946Z,8.73
2023-06-29T08:43:27.666Z,8.40
2023-06-29T08:45:54.674Z,7.28
2023-06-29T08:48:23.344Z,6.25
2023-06-29T08:50:58.089Z,7.47
2023-06-29T08:53:26.962Z,14.07
2023-06-29T08:55:54.913Z,5.45
2023-06-29T08:58:23.695Z,9.23
2023-06-29T09:00:51.782Z,12.27
2023-06-29T09:03:20.080Z,15.82
2023-06-29T09:05:47.174Z,10.73
2023-06-29T09:08:15.020Z,5.00
2023-06-29T09:10:42.535Z,6.10
2023-06-29T09:13:10.708Z,6.95
2023-06-29T09:15:40.716Z,8.77
2023-06-29T09:18:09.199Z,5.32
2023-06-29T09:20:37.275Z,5.60
2023-06-29T09:23:07.075Z,6.00
2023-06-29T09:25:37.320Z,5.10
2023-06-29T09:28:09.114Z,6.65
2023-06-29T09:30:40.535Z,12.48
2023-06-29T09:33:12.436Z,7.25
2023-06-29T09:35:51.608Z,7.03
2023-06-29T09:38:19.362Z,9.32
2023-06-29T09:40:54.345Z,10.50
2023-06-29T09:43:26.628Z,7.97
2023-06-29T09:46:08.783Z,4.10
2023-06-29T09:51:22.462Z,7.90
2023-06-29T09:53:49.820Z,6.85
2023-06-29T09:56:18.229Z,12.00
2023-06-29T09:58:47.321Z,7.95
2023-06-29T10:01:17.279Z,5.72
2023-06-29T10:03:45.082Z,8.18
2023-06-29T10:06:22.961Z,6.68
2023-06-29T10:08:58.609Z,4.78
2023-06-29T10:11:32.896Z,7.25
2023-06-29T10:14:05.741Z,10.48
2023-06-29T10:16:36.390Z,8.73
2023-06-29T10:19:25.486Z,3.10
2023-06-29T10:21:58.011Z,6.85
2023-06-29T10:24:31.310Z,5.40
2023-06-29T10:27:00.246Z,6.90
2023-06-29T10:29:27.215Z,5.45
2023-06-29T10:31:59.325Z,3.80
2023-06-29T10:34:27.892Z,3.80
2023-06-29T10:37:01.051Z,5.35
2023-06-29T10:39:43.658Z,4.20
2023-06-29T10:42:23.117Z,9.15
2023-06-29T10:44:50.203Z,6.57
2023-06-29T10:47:39.647Z,9.07
2023-06-29T10:50:12.524Z,4.43
2023-06-29T10:52:40.556Z,5.93
2023-06-29T10:55:30.268Z,8.40
2023-06-29T10:58:01.676Z,8.13
2023-06-29T11:00:28.608Z,10.50
2023-06-29T11:02:56.279Z,9.15
2023-06-29T11:05:25.012Z,9.80
2023-06-29T11:07:53.442Z,6.55
2023-06-29T11:10:23.977Z,6.53
2023-06-29T11:12:52.534Z,7.55
2023-06-29T11:18:10.782Z,7.72
2023-06-29T11:20:40.746Z,8.35
2023-06-29T11:23:11.573Z,7.10
2023-06-29T11:25:38.576Z,6.68
2023-06-29T11:28:05.944Z,9.43
2023-06-29T11:30:33.110Z,7.07
2023-06-29T11:33:02.895Z,8.45
2023-06-29T11:35:32.808Z,6.85
2023-06-29T11:38:02.092Z,7.25
2023-06-29T11:40:30.052Z,14.95
2023-06-29T11:42:57.226Z,10.73
2023-06-29T11:45:24.897Z,7.65
2023-06-29T11:47:56.662Z,8.05
2023-06-29T11:50:25.261Z,10.80
2023-06-29T11:52:53.014Z,8.82
2023-06-29T11:55:21.545Z,6.05
2023-06-29T11:57:52.820Z,7.53
2023-06-29T12:00:19.794Z,9.20
2023-06-29T12:02:46.667Z,8.20
2023-06-29T12:05:13.726Z,8.02
2023-06-29T12:07:43.236Z,6.82
2023-06-29T12:10:15.147Z,9.50
2023-06-29T12:12:46.997Z,10.33
2023-06-29T12:15:17.986Z,7.47
2023-06-29T12:20:22.063Z,14.32
2023-06-29T12:22:51.814Z,9.98
2023-06-29T12:25:20.671Z,6.05
2023-06-29T12:27:49.537Z,9.23
2023-06-29T12:30:18.472Z,8.77
2023-06-29T12:32:50.443Z,8.13
2023-06-29T12:35:18.767Z,11.38
2023-06-29T12:37:46.426Z,8.88
2023-06-29T12:40:16.177Z,7.30
2023-06-29T12:42:43.170Z,13.68
2023-06-29T12:45:10.622Z,7.60
2023-06-29T12:47:39.135Z,9.93
2023-06-29T12:50:07.347Z,8.27
2023-06-29T12:52:34.427Z,8.30
2023-06-29T12:55:01.345Z,8.18
2023-06-29T12:57:29.886Z,11.48
2023-06-29T12:59:58.317Z,14.32
2023-06-29T13:02:26.039Z,12.13
2023-06-29T13:04:53.479Z,11.73
2023-06-29T13:07:21.139Z,11.70
2023-06-29T13:09:48.972Z,27.17
2023-06-29T13:12:16.469Z,15.05
2023-06-29T13:14:43.712Z,10.75
2023-06-29T13:17:12.104Z,7.28
2023-06-29T13:19:43.726Z,10.80
2023-06-29T13:22:10.858Z,15.38
2023-06-29T13:24:38.082Z,10.00
2023-06-29T13:27:05.666Z,12.90
2023-06-29T13:29:33.215Z,18.40
2023-06-29T13:32:00.568Z,12.20
2023-06-29T13:34:29.922Z,10.68
2023-06-29T13:36:58.161Z,13.80
2023-06-29T13:39:24.998Z,12.35
2023-06-29T13:41:52.005Z,9.23
2023-06-29T13:44:19.024Z,11.05
2023-06-29T13:46:47.859Z,12.57
2023-06-29T13:49:16.636Z,10.63
2023-06-29T13:51:44.369Z,14.05
2023-06-29T13:54:12.271Z,11.38
2023-06-29T13:56:39.434Z,13.20
2023-06-29T13:59:08.322Z,12.73
2023-06-29T14:01:40.161Z,11.13
2023-06-29T14:04:09.545Z,12.37
2023-06-29T14:06:42.258Z,11.98
2023-06-29T14:11:37.182Z,11.23
2023-06-29T14:14:04.567Z,11.35
2023-06-29T14:16:32.421Z,10.75
2023-06-29T14:19:00.654Z,8.82
2023-06-29T14:21:27.980Z,10.32
2023-06-29T14:23:55.450Z,7.28
2023-06-29T14:26:23.803Z,10.75
2023-06-29T14:28:50.844Z,15.38
2023-06-29T14:31:18.863Z,15.52
2023-06-29T14:33:46.418Z,23.05
2023-06-29T14:36:13.990Z,17.75
2023-06-29T14:38:41.041Z,17.42
2023-06-29T14:41:08.144Z,21.00
2023-06-29T14:43:34.993Z,23.40
2023-06-29T14:46:02.013Z,24.55
2023-06-29T14:48:28.967Z,22.92
2023-06-29T14:50:56.733Z,20.52
2023-06-29T14:53:24.342Z,23.90
2023-06-29T14:56:04.086Z,21.42
2023-06-29T14:58:31.368Z,21.65
2023-06-29T15:00:58.502Z,24.70
2023-06-29T15:03:25.870Z,24.65
2023-06-29T15:05:52.967Z,27.63
2023-06-29T15:08:20.032Z,30.80
2023-06-29T15:10:47.146Z,31.88
2023-06-29T15:13:14.129Z,29.27
2023-06-29T15:15:41.393Z,30.88
2023-06-29T15:18:08.804Z,32.03
2023-06-29T15:20:36.004Z,29.50
2023-06-29T15:23:02.923Z,34.67
2023-06-29T15:25:29.940Z,30.42
2023-06-29T15:28:00.281Z,28.88
2023-06-29T15:30:27.164Z,22.73
2023-06-29T15:32:55.831Z,30.08
2023-06-29T15:35:23.495Z,30.27
2023-06-29T15:37:50.571Z,31.52
2023-06-29T15:40:18.039Z,29.70
2023-06-29T15:42:46.620Z,29.10
2023-06-29T15:45:13.856Z,32.55
2023-06-29T15:47:41.381Z,34.80
2023-06-29T15:50:09.022Z,29.70
2023-06-29T15:52:36.248Z,36.03
2023-06-29T15:55:03.398Z,30.38
2023-06-29T15:57:31.822Z,33.92
2023-06-29T15:59:58.985Z,38.80
2023-06-29T16:02:26.993Z,35.22
2023-06-29T16:04:54.109Z,35.45
2023-06-29T16:07:25.611Z,35.10
2023-06-29T16:09:52.683Z,39.72
2023-06-29T16:12:19.705Z,38.88
2023-06-29T16:14:46.696Z,33.97
2023-06-29T16:17:13.717Z,35.45
2023-06-29T16:19:40.764Z,39.17
2023-06-29T16:22:08.049Z,36.35
2023-06-29T16:24:35.005Z,37.28
2023-06-29T16:27:02.120Z,31.95
2023-06-29T16:29:29.030Z,32.55
2023-06-29T16:32:01.122Z,28.08
2023-06-29T16:34:28.061Z,35.22
2023-06-29T16:36:55.070Z,30.98
2023-06-29T16:39:22.550Z,33.83
2023-06-29T16:41:50.064Z,33.97
2023-06-29T16:44:16.973Z,34.22
2023-06-29T16:46:43.924Z,30.38
2023-06-29T16:49:10.978Z,35.00
2023-06-29T16:51:37.912Z,33.15
2023-06-29T16:54:04.872Z,31.50
2023-06-29T16:56:31.843Z,34.47
2023-06-29T16:58:58.776Z,33.13
2023-06-29T17:01:26.084Z,31.85
2023-06-29T17:03:53.310Z,29.13
2023-06-29T17:06:20.309Z,32.30
2023-06-29T17:08:47.935Z,28.00
2023-06-29T17:11:15.001Z,30.00
2023-06-29T17:13:41.944Z,32.33
2023-06-29T17:16:08.967Z,31.70
2023-06-29T17:18:35.987Z,29.77
2023-06-29T17:21:03.194Z,25.52
2023-06-29T17:23:30.269Z,34.30
2023-06-29T17:25:57.189Z,31.23
2023-06-29T17:28:24.324Z,28.83
2023-06-29T17:30:52.005Z,35.47
2023-06-29T17:33:19.092Z,31.20
2023-06-29T17:35:46.134Z,30.95
2023-06-29T17:38:13.215Z,32.28
2023-06-29T17:40:40.376Z,29.75
2023-06-29T17:43:07.313Z,31.70
2023-06-29T17:45:34.458Z,29.73
2023-06-29T17:48:01.460Z,30.45
2023-06-29T17:50:28.380Z,30.70
2023-06-29T17:52:55.232Z,32.08
2023-06-29T17:55:22.176Z,30.15
2023-06-29T17:57:49.124Z,29.25
2023-06-29T18:00:16.606Z,30.85
2023-06-29T18:02:43.816Z,32.05
2023-06-29T18:05:11.329Z,33.35
2023-06-29T18:07:38.913Z,27.73
2023-06-29T18:10:08.325Z,34.90
2023-06-29T18:12:36.678Z,33.40
2023-06-29T18:15:05.798Z,27.92
2023-06-29T18:17:32.882Z,34.95
2023-06-29T18:20:01.193Z,28.27
2023-06-29T18:22:28.401Z,30.95
2023-06-29T18:24:55.419Z,30.30
2023-06-29T18:27:23.343Z,31.67
2023-06-29T18:29:50.526Z,30.92
2023-06-29T18:32:18.966Z,34.33
2023-06-29T18:34:47.625Z,29.17
2023-06-29T18:37:15.198Z,32.47
2023-06-29T18:39:42.896Z,32.95
2023-06-29T18:42:11.364Z,34.17
2023-06-29T18:44:38.405Z,27.33
2023-06-29T18:47:12.715Z,31.52
2023-06-29T18:49:51.343Z,30.85
2023-06-29T18:52:20.152Z,32.08
2023-06-29T18:54:47.561Z,30.25
2023-06-29T18:57:14.711Z,31.00
2023-06-29T18:59:43.437Z,31.65
2023-06-29T19:02:10.900Z,32.97
2023-06-29T19:04:37.990Z,30.02
2023-06-29T19:07:05.413Z,32.08
2023-06-29T19:09:32.843Z,31.50
2023-06-29T19:12:01.197Z,35.15
2023-06-29T19:14:28.649Z,31.45
2023-06-29T19:16:57.675Z,31.65
2023-06-29T19:19:25.780Z,30.38
2023-06-29T19:21:53.422Z,29.90
2023-06-29T19:24:20.920Z,30.10
2023-06-29T19:26:48.219Z,33.97
2023-06-29T19:29:15.342Z,32.60
2023-06-29T19:31:44.976Z,32.30
2023-06-29T19:34:12.600Z,32.08
2023-06-29T19:36:40.155Z,32.90
2023-06-29T19:39:07.193Z,35.20
2023-06-29T19:41:34.458Z,35.08
2023-06-29T19:44:01.330Z,33.20
2023-06-29T19:46:28.617Z,32.22
2023-06-29T19:48:55.980Z,31.67
2023-06-29T19:51:22.974Z,31.35
2023-06-29T19:53:49.887Z,31.63
2023-06-29T19:56:16.882Z,32.05
2023-06-29T19:58:43.860Z,33.13
2023-06-29T20:01:10.902Z,34.15
2023-06-29T20:03:38.031Z,34.38
2023-06-29T20:06:05.282Z,36.97
2023-06-29T20:08:32.266Z,36.83
2023-06-29T20:10:59.213Z,31.00
2023-06-29T20:13:26.217Z,37.03
2023-06-29T20:15:53.711Z,35.33
2023-06-29T20:18:20.747Z,39.13
2023-06-29T20:20:47.759Z,34.97
2023-06-29T20:23:14.823Z,36.58
2023-06-29T20:25:41.665Z,37.25
2023-06-29T20:28:08.723Z,40.53
2023-06-29T20:30:35.633Z,36.30
2023-06-29T20:33:02.544Z,38.45
2023-06-29T20:35:30.681Z,40.35
2023-06-29T20:37:57.642Z,38.15
2023-06-29T20:40:24.857Z,39.13
2023-06-29T20:42:51.785Z,42.08
2023-06-29T20:45:18.760Z,43.75
2023-06-29T20:47:45.898Z,40.35
2023-06-29T20:50:13.056Z,40.97
2023-06-29T20:52:40.447Z,43.28
2023-06-29T20:55:07.969Z,39.97
2023-06-29T20:57:38.279Z,44.90
2023-06-29T21:00:12.795Z,43.28
2023-06-29T21:02:40.282Z,44.00
2023-06-29T21:05:08.150Z,43.83
2023-06-29T21:07:35.552Z,45.90
2023-06-29T21:10:02.609Z,44.90
2023-06-29T21:12:29.678Z,47.67
2023-06-29T21:14:57.049Z,50.50
2023-06-29T21:17:24.265Z,49.38
2023-06-29T21:19:51.735Z,51.78
2023-06-29T21:22:19.450Z,56.15
2023-06-29T21:24:47.186Z,50.92
2023-06-29T21:27:18.919Z,54.05
2023-06-29T21:29:48.296Z,53.10
2023-06-29T21:32:16.305Z,62.45
2023-06-29T21:34:43.542Z,51.00
2023-06-29T21:37:11.243Z,54.67
2023-06-29T21:39:38.100Z,57.45
2023-06-29T21:42:05.617Z,56.08
2023-06-29T21:44:32.822Z,52.85
2023-06-29T21:47:02.974Z,49.17
2023-06-29T21:49:29.992Z,51.42
2023-06-29T21:51:56.902Z,54.05
2023-06-29T21:54:23.881Z,52.85
2023-06-29T21:56:51.146Z,53.40
2023-06-29T21:59:18.398Z,53.85
2023-06-29T22:01:45.422Z,48.30
2023-06-29T22:04:13.583Z,54.22
2023-06-29T22:06:41.087Z,53.75
2023-06-29T22:09:08.435Z,57.83
2023-06-29T22:11:39.862Z,60.40
2023-06-29T22:14:10.157Z,52.70
2023-06-29T22:16:37.516Z,50.90
2023-06-29T22:19:04.699Z,54.97
2023-06-29T22:21:34.540Z,56.88
2023-06-29T22:24:01.655Z,53.30
2023-06-29T22:26:29.463Z,56.40
2023-06-29T22:28:56.460Z,58.70
2023-06-29T22:31:23.535Z,54.63
2023-06-29T22:33:51.245Z,52.58
2023-06-29T22:36:19.481Z,48.80
2023-06-29T22:38:46.685Z,44.33
2023-06-29T22:41:14.953Z,50.13
2023-06-29T22:43:41.921Z,46.28
2023-06-29T22:46:08.898Z,48.05
2023-06-29T22:48:38.368Z,46.58
2023-06-29T22:51:06.072Z,44.78
2023-06-29T22:53:33.223Z,43.42
2023-06-29T22:56:00.217Z,47.90
2023-06-29T22:58:28.313Z,49.20
2023-06-29T23:00:57.421Z,50.55
2023-06-29T23:03:24.813Z,46.88
2023-06-29T23:05:52.088Z,47.38
2023-06-29T23:08:19.040Z,50.58
2023-06-29T23:10:47.828Z,51.03
2023-06-29T23:13:17.557Z,52.53
2023-06-29T23:15:45.988Z,52.50
2023-06-29T23:18:14.115Z,51.58
2023-06-29T23:20:45.260Z,58.63
2023-06-29T23:23:14.371Z,56.90
2023-06-29T23:25:45.012Z,55.38
2023-06-29T23:28:12.311Z,59.90
2023-06-29T23:30:39.237Z,64.55
2023-06-29T23:33:09.839Z,53.78
2023-06-29T23:35:38.649Z,55.22
2023-06-29T23:38:06.571Z,53.40
2023-06-29T23:40:37.645Z,56.40
2023-06-29T23:43:08.622Z,57.28
2023-06-29T23:45:36.788Z,52.15
2023-06-29T23:48:04.821Z,49.08
2023-06-29T23:50:32.172Z,46.88
2023-06-29T23:52:59.056Z,44.45
2023-06-29T23:55:26.100Z,51.95
2023-06-29T23:57:53.218Z,50.05
